sensor_id;sensor_type;location;lat;lon;timestamp;temperature;humidity
10903;DHT22;5504;47.312;11.060;2023-01-08T00:01:33;1.60;85.10
10903;DHT22;5504;47.312;11.060;2023-01-08T00:03:59;1.80;84.80
10903;DHT22;5504;47.312;11.060;2023-01-08T00:06:24;1.90;84.10
10903;DHT22;5504;47.312;11.060;2023-01-08T00:08:50;1.70;83.70
10903;DHT22;5504;47.312;11.060;2023-01-08T00:11:16;1.40;84.40
10903;DHT22;5504;47.312;11.060;2023-01-08T00:13:42;1.20;85.40
10903;DHT22;5504;47.312;11.060;2023-01-08T00:16:11;1.10;86.10
10903;DHT22;5504;47.312;11.060;2023-01-08T00:18:37;1.40;86.10
10903;DHT22;5504;47.312;11.060;2023-01-08T00:21:03;1.50;85.20
10903;DHT22;5504;47.312;11.060;2023-01-08T00:23:28;1.40;84.80
10903;DHT22;5504;47.312;11.060;2023-01-08T00:25:54;1.40;84.50
10903;DHT22;5504;47.312;11.060;2023-01-08T00:28:20;1.60;84.40
10903;DHT22;5504;47.312;11.060;2023-01-08T00:30:47;1.60;83.90
10903;DHT22;5504;47.312;11.060;2023-01-08T00:33:13;1.50;83.90
10903;DHT22;5504;47.312;11.060;2023-01-08T00:35:39;1.40;84.40
10903;DHT22;5504;47.312;11.060;2023-01-08T00:38:05;1.50;84.30
10903;DHT22;5504;47.312;11.060;2023-01-08T00:40:35;1.40;84.10
10903;DHT22;5504;47.312;11.060;2023-01-08T00:43:01;1.40;84.70
10903;DHT22;5504;47.312;11.060;2023-01-08T00:45:27;1.40;85.10
10903;DHT22;5504;47.312;11.060;2023-01-08T00:47:52;1.40;84.70
10903;DHT22;5504;47.312;11.060;2023-01-08T00:50:18;1.40;84.60
10903;DHT22;5504;47.312;11.060;2023-01-08T00:52:44;1.40;84.30
10903;DHT22;5504;47.312;11.060;2023-01-08T00:55:09;1.40;84.40
10903;DHT22;5504;47.312;11.060;2023-01-08T00:57:37;1.10;85.20
10903;DHT22;5504;47.312;11.060;2023-01-08T01:00:05;0.70;86.20
10903;DHT22;5504;47.312;11.060;2023-01-08T01:02:34;0.80;86.80
10903;DHT22;5504;47.312;11.060;2023-01-08T01:05:00;0.90;86.20
10903;DHT22;5504;47.312;11.060;2023-01-08T01:07:26;1.00;86.30
10903;DHT22;5504;47.312;11.060;2023-01-08T01:09:51;1.10;86.00
10903;DHT22;5504;47.312;11.060;2023-01-08T01:12:17;1.20;85.40
10903;DHT22;5504;47.312;11.060;2023-01-08T01:14:43;1.30;85.00
10903;DHT22;5504;47.312;11.060;2023-01-08T01:17:10;1.50;84.30
10903;DHT22;5504;47.312;11.060;2023-01-08T01:19:36;1.30;84.10
10903;DHT22;5504;47.312;11.060;2023-01-08T01:22:02;1.30;84.70
10903;DHT22;5504;47.312;11.060;2023-01-08T01:24:28;1.20;84.60
10903;DHT22;5504;47.312;11.060;2023-01-08T01:26:54;0.90;85.40
10903;DHT22;5504;47.312;11.060;2023-01-08T01:29:21;1.00;86.00
10903;DHT22;5504;47.312;11.060;2023-01-08T01:31:47;0.90;85.60
10903;DHT22;5504;47.312;11.060;2023-01-08T01:34:13;1.00;85.70
10903;DHT22;5504;47.312;11.060;2023-01-08T01:36:38;1.20;85.20
10903;DHT22;5504;47.312;11.060;2023-01-08T01:39:04;1.40;84.50
10903;DHT22;5504;47.312;11.060;2023-01-08T01:41:34;1.40;83.90
10903;DHT22;5504;47.312;11.060;2023-01-08T01:46:59;1.10;84.20
10903;DHT22;5504;47.312;11.060;2023-01-08T01:49:25;1.10;85.00
10903;DHT22;5504;47.312;11.060;2023-01-08T01:51:56;1.20;84.50
10903;DHT22;5504;47.312;11.060;2023-01-08T01:54:27;0.90;84.50
10903;DHT22;5504;47.312;11.060;2023-01-08T01:56:54;0.90;85.10
10903;DHT22;5504;47.312;11.060;2023-01-08T01:59:20;0.90;85.40
10903;DHT22;5504;47.312;11.060;2023-01-08T02:01:46;0.90;85.80
10903;DHT22;5504;47.312;11.060;2023-01-08T02:04:13;1.00;85.60
10903;DHT22;5504;47.312;11.060;2023-01-08T02:06:59;1.20;84.90
10903;DHT22;5504;47.312;11.060;2023-01-08T02:09:53;1.10;84.00
10903;DHT22;5504;47.312;11.060;2023-01-08T02:12:32;0.60;85.30
10903;DHT22;5504;47.312;11.060;2023-01-08T02:17:43;0.70;86.20
10903;DHT22;5504;47.312;11.060;2023-01-08T02:20:38;0.70;86.40
10903;DHT22;5504;47.312;11.060;2023-01-08T02:26:11;1.10;85.40
10903;DHT22;5504;47.312;11.060;2023-01-08T02:31:31;1.10;84.30
10903;DHT22;5504;47.312;11.060;2023-01-08T02:33:58;0.70;84.70
10903;DHT22;5504;47.312;11.060;2023-01-08T02:36:31;0.80;85.20
10903;DHT22;5504;47.312;11.060;2023-01-08T02:48:03;1.10;84.30
10903;DHT22;5504;47.312;11.060;2023-01-08T02:50:45;1.10;84.30
10903;DHT22;5504;47.312;11.060;2023-01-08T02:53:32;0.90;84.00
10903;DHT22;5504;47.312;11.060;2023-01-08T02:56:14;0.90;84.40
10903;DHT22;5504;47.312;11.060;2023-01-08T02:58:41;1.00;84.20
10903;DHT22;5504;47.312;11.060;2023-01-08T03:01:10;0.80;84.00
10903;DHT22;5504;47.312;11.060;2023-01-08T03:03:38;0.70;84.60
10903;DHT22;5504;47.312;11.060;2023-01-08T03:06:13;0.90;84.80
10903;DHT22;5504;47.312;11.060;2023-01-08T03:08:42;0.90;85.00
10903;DHT22;5504;47.312;11.060;2023-01-08T03:11:16;0.80;84.90
10903;DHT22;5504;47.312;11.060;2023-01-08T03:18:56;0.50;86.80
10903;DHT22;5504;47.312;11.060;2023-01-08T03:21:24;0.70;86.70
10903;DHT22;5504;47.312;11.060;2023-01-08T03:23:50;0.90;86.00
10903;DHT22;5504;47.312;11.060;2023-01-08T03:26:20;0.80;85.10
10903;DHT22;5504;47.312;11.060;2023-01-08T03:28:50;0.70;85.20
10903;DHT22;5504;47.312;11.060;2023-01-08T03:31:18;0.70;85.00
10903;DHT22;5504;47.312;11.060;2023-01-08T03:33:45;0.80;84.80
10903;DHT22;5504;47.312;11.060;2023-01-08T03:36:14;0.50;85.30
10903;DHT22;5504;47.312;11.060;2023-01-08T03:38:55;0.50;86.40
10903;DHT22;5504;47.312;11.060;2023-01-08T03:41:24;0.70;86.00
10903;DHT22;5504;47.312;11.060;2023-01-08T03:43:51;0.80;85.40
10903;DHT22;5504;47.312;11.060;2023-01-08T03:46:29;0.70;85.30
10903;DHT22;5504;47.312;11.060;2023-01-08T03:48:57;0.70;85.50
10903;DHT22;5504;47.312;11.060;2023-01-08T03:51:23;0.30;86.10
10903;DHT22;5504;47.312;11.060;2023-01-08T03:53:52;0.30;87.30
10903;DHT22;5504;47.312;11.060;2023-01-08T03:56:18;0.40;87.20
10903;DHT22;5504;47.312;11.060;2023-01-08T03:58:44;0.40;87.20
10903;DHT22;5504;47.312;11.060;2023-01-08T04:01:10;0.50;87.40
10903;DHT22;5504;47.312;11.060;2023-01-08T04:03:35;0.50;87.10
10903;DHT22;5504;47.312;11.060;2023-01-08T04:06:01;0.40;86.90
10903;DHT22;5504;47.312;11.060;2023-01-08T04:08:27;0.40;87.30
10903;DHT22;5504;47.312;11.060;2023-01-08T04:10:54;0.70;86.90
10903;DHT22;5504;47.312;11.060;2023-01-08T04:13:20;0.80;86.20
10903;DHT22;5504;47.312;11.060;2023-01-08T04:15:49;0.90;85.80
10903;DHT22;5504;47.312;11.060;2023-01-08T04:18:16;0.90;85.50
10903;DHT22;5504;47.312;11.060;2023-01-08T04:20:46;0.80;85.30
10903;DHT22;5504;47.312;11.060;2023-01-08T04:23:13;0.80;85.60
10903;DHT22;5504;47.312;11.060;2023-01-08T04:25:38;0.70;85.80
10903;DHT22;5504;47.312;11.060;2023-01-08T04:28:04;0.70;85.80
10903;DHT22;5504;47.312;11.060;2023-01-08T04:30:30;0.60;86.40
10903;DHT22;5504;47.312;11.060;2023-01-08T04:32:56;0.60;86.60
10903;DHT22;5504;47.312;11.060;2023-01-08T04:35:22;0.60;86.80
10903;DHT22;5504;47.312;11.060;2023-01-08T04:37:47;0.60;86.30
10903;DHT22;5504;47.312;11.060;2023-01-08T04:40:13;0.60;86.50
10903;DHT22;5504;47.312;11.060;2023-01-08T04:42:39;0.60;86.50
10903;DHT22;5504;47.312;11.060;2023-01-08T04:45:06;0.60;86.90
10903;DHT22;5504;47.312;11.060;2023-01-08T04:47:32;0.50;86.80
10903;DHT22;5504;47.312;11.060;2023-01-08T04:49:57;0.60;87.10
10903;DHT22;5504;47.312;11.060;2023-01-08T04:52:23;0.70;87.30
10903;DHT22;5504;47.312;11.060;2023-01-08T04:54:49;0.80;86.70
10903;DHT22;5504;47.312;11.060;2023-01-08T04:57:14;0.90;86.20
10903;DHT22;5504;47.312;11.060;2023-01-08T04:59:40;0.90;86.00
10903;DHT22;5504;47.312;11.060;2023-01-08T05:02:06;0.70;85.90
10903;DHT22;5504;47.312;11.060;2023-01-08T05:04:32;0.40;87.40
10903;DHT22;5504;47.312;11.060;2023-01-08T05:06:57;0.50;87.50
10903;DHT22;5504;47.312;11.060;2023-01-08T05:09:23;0.60;87.30
10903;DHT22;5504;47.312;11.060;2023-01-08T05:11:49;0.80;87.30
10903;DHT22;5504;47.312;11.060;2023-01-08T05:14:14;0.60;87.10
10903;DHT22;5504;47.312;11.060;2023-01-08T05:16:40;0.60;87.60
10903;DHT22;5504;47.312;11.060;2023-01-08T05:19:06;0.80;87.40
10903;DHT22;5504;47.312;11.060;2023-01-08T05:21:32;0.70;87.00
10903;DHT22;5504;47.312;11.060;2023-01-08T05:23:58;0.70;87.10
10903;DHT22;5504;47.312;11.060;2023-01-08T05:26:23;0.70;87.40
10903;DHT22;5504;47.312;11.060;2023-01-08T05:28:49;0.80;87.40
10903;DHT22;5504;47.312;11.060;2023-01-08T05:31:15;0.80;87.70
10903;DHT22;5504;47.312;11.060;2023-01-08T05:33:41;0.90;87.30
10903;DHT22;5504;47.312;11.060;2023-01-08T05:36:09;1.10;86.70
10903;DHT22;5504;47.312;11.060;2023-01-08T05:38:36;0.90;86.20
10903;DHT22;5504;47.312;11.060;2023-01-08T05:41:02;0.80;86.80
10903;DHT22;5504;47.312;11.060;2023-01-08T05:43:28;0.80;87.30
10903;DHT22;5504;47.312;11.060;2023-01-08T05:45:56;0.90;87.40
10903;DHT22;5504;47.312;11.060;2023-01-08T05:48:22;1.00;87.20
10903;DHT22;5504;47.312;11.060;2023-01-08T05:50:48;0.60;87.40
10903;DHT22;5504;47.312;11.060;2023-01-08T05:53:14;0.70;88.10
10903;DHT22;5504;47.312;11.060;2023-01-08T05:55:40;0.90;87.70
10903;DHT22;5504;47.312;11.060;2023-01-08T05:58:06;0.80;87.20
10903;DHT22;5504;47.312;11.060;2023-01-08T06:00:32;0.90;87.30
10903;DHT22;5504;47.312;11.060;2023-01-08T06:02:58;1.10;86.70
10903;DHT22;5504;47.312;11.060;2023-01-08T06:05:24;1.20;86.30
10903;DHT22;5504;47.312;11.060;2023-01-08T06:07:50;1.00;86.20
10903;DHT22;5504;47.312;11.060;2023-01-08T06:10:15;0.90;87.30
10903;DHT22;5504;47.312;11.060;2023-01-08T06:12:41;0.90;87.40
10903;DHT22;5504;47.312;11.060;2023-01-08T06:15:08;0.90;87.40
10903;DHT22;5504;47.312;11.060;2023-01-08T06:17:34;1.10;87.30
10903;DHT22;5504;47.312;11.060;2023-01-08T06:20:00;1.10;86.80
10903;DHT22;5504;47.312;11.060;2023-01-08T06:22:26;1.10;86.60
10903;DHT22;5504;47.312;11.060;2023-01-08T06:24:52;1.10;87.10
10903;DHT22;5504;47.312;11.060;2023-01-08T06:27:18;1.20;86.80
10903;DHT22;5504;47.312;11.060;2023-01-08T06:29:43;1.00;86.60
10903;DHT22;5504;47.312;11.060;2023-01-08T06:32:09;1.00;87.20
10903;DHT22;5504;47.312;11.060;2023-01-08T06:34:35;1.00;87.20
10903;DHT22;5504;47.312;11.060;2023-01-08T06:37:01;1.00;87.40
10903;DHT22;5504;47.312;11.060;2023-01-08T06:39:26;1.00;87.20
10903;DHT22;5504;47.312;11.060;2023-01-08T06:41:52;1.10;87.80
10903;DHT22;5504;47.312;11.060;2023-01-08T06:44:18;1.10;87.80
10903;DHT22;5504;47.312;11.060;2023-01-08T06:46:44;1.10;88.10
10903;DHT22;5504;47.312;11.060;2023-01-08T06:49:09;1.40;87.50
10903;DHT22;5504;47.312;11.060;2023-01-08T06:51:35;1.40;86.90
10903;DHT22;5504;47.312;11.060;2023-01-08T06:54:02;1.50;86.60
10903;DHT22;5504;47.312;11.060;2023-01-08T06:56:28;1.30;86.40
10903;DHT22;5504;47.312;11.060;2023-01-08T06:58:54;1.50;86.90
10903;DHT22;5504;47.312;11.060;2023-01-08T07:01:20;1.60;86.30
10903;DHT22;5504;47.312;11.060;2023-01-08T07:03:47;1.60;86.30
10903;DHT22;5504;47.312;11.060;2023-01-08T07:06:18;1.60;86.00
10903;DHT22;5504;47.312;11.060;2023-01-08T07:08:45;1.40;86.80
10903;DHT22;5504;47.312;11.060;2023-01-08T07:11:11;1.60;86.90
10903;DHT22;5504;47.312;11.060;2023-01-08T07:13:37;1.60;86.70
10903;DHT22;5504;47.312;11.060;2023-01-08T07:16:10;1.30;87.30
10903;DHT22;5504;47.312;11.060;2023-01-08T07:18:36;1.20;87.80
10903;DHT22;5504;47.312;11.060;2023-01-08T07:21:04;1.10;88.40
10903;DHT22;5504;47.312;11.060;2023-01-08T07:23:30;1.30;88.60
10903;DHT22;5504;47.312;11.060;2023-01-08T07:26:00;1.40;88.60
10903;DHT22;5504;47.312;11.060;2023-01-08T07:28:26;1.50;88.50
10903;DHT22;5504;47.312;11.060;2023-01-08T07:30:52;1.60;87.80
10903;DHT22;5504;47.312;11.060;2023-01-08T07:33:18;1.60;87.50
10903;DHT22;5504;47.312;11.060;2023-01-08T07:35:50;1.70;88.10
10903;DHT22;5504;47.312;11.060;2023-01-08T07:38:16;1.80;88.00
10903;DHT22;5504;47.312;11.060;2023-01-08T07:40:42;1.90;87.50
10903;DHT22;5504;47.312;11.060;2023-01-08T07:43:08;1.90;87.30
10903;DHT22;5504;47.312;11.060;2023-01-08T07:45:34;2.10;87.30
10903;DHT22;5504;47.312;11.060;2023-01-08T07:47:59;2.20;86.90
10903;DHT22;5504;47.312;11.060;2023-01-08T07:50:26;2.10;86.90
10903;DHT22;5504;47.312;11.060;2023-01-08T07:52:51;2.20;86.60
10903;DHT22;5504;47.312;11.060;2023-01-08T07:55:17;2.20;86.50
10903;DHT22;5504;47.312;11.060;2023-01-08T07:57:43;2.00;87.10
10903;DHT22;5504;47.312;11.060;2023-01-08T08:00:09;2.00;87.80
10903;DHT22;5504;47.312;11.060;2023-01-08T08:02:35;2.20;87.70
10903;DHT22;5504;47.312;11.060;2023-01-08T08:05:00;2.30;87.60
10903;DHT22;5504;47.312;11.060;2023-01-08T08:07:29;2.50;87.70
10903;DHT22;5504;47.312;11.060;2023-01-08T08:09:55;2.70;87.20
10903;DHT22;5504;47.312;11.060;2023-01-08T08:12:21;2.90;86.30
10903;DHT22;5504;47.312;11.060;2023-01-08T08:14:46;2.90;85.70
10903;DHT22;5504;47.312;11.060;2023-01-08T08:17:12;2.80;86.80
10903;DHT22;5504;47.312;11.060;2023-01-08T08:19:38;2.90;86.00
10903;DHT22;5504;47.312;11.060;2023-01-08T08:22:05;3.00;86.00
10903;DHT22;5504;47.312;11.060;2023-01-08T08:24:31;3.00;85.60
10903;DHT22;5504;47.312;11.060;2023-01-08T08:26:57;3.10;85.70
10903;DHT22;5504;47.312;11.060;2023-01-08T08:29:22;3.30;85.20
10903;DHT22;5504;47.312;11.060;2023-01-08T08:31:48;3.20;84.80
10903;DHT22;5504;47.312;11.060;2023-01-08T08:34:14;2.90;86.30
10903;DHT22;5504;47.312;11.060;2023-01-08T08:36:40;3.00;85.90
10903;DHT22;5504;47.312;11.060;2023-01-08T08:39:05;2.90;86.00
10903;DHT22;5504;47.312;11.060;2023-01-08T08:41:31;2.50;86.70
10903;DHT22;5504;47.312;11.060;2023-01-08T08:43:57;2.70;87.50
10903;DHT22;5504;47.312;11.060;2023-01-08T08:46:22;2.90;87.00
10903;DHT22;5504;47.312;11.060;2023-01-08T08:48:50;3.00;87.00
10903;DHT22;5504;47.312;11.060;2023-01-08T08:51:15;3.20;86.90
10903;DHT22;5504;47.312;11.060;2023-01-08T08:53:41;3.40;86.60
10903;DHT22;5504;47.312;11.060;2023-01-08T08:56:07;3.70;86.10
10903;DHT22;5504;47.312;11.060;2023-01-08T08:58:34;4.00;85.60
10903;DHT22;5504;47.312;11.060;2023-01-08T09:01:01;4.30;85.10
10903;DHT22;5504;47.312;11.060;2023-01-08T09:03:28;4.60;84.40
10903;DHT22;5504;47.312;11.060;2023-01-08T09:05:54;4.90;83.50
10903;DHT22;5504;47.312;11.060;2023-01-08T09:08:20;5.10;83.00
10903;DHT22;5504;47.312;11.060;2023-01-08T09:10:46;5.30;82.50
10903;DHT22;5504;47.312;11.060;2023-01-08T09:13:11;5.40;82.00
10903;DHT22;5504;47.312;11.060;2023-01-08T09:15:37;5.60;81.80
10903;DHT22;5504;47.312;11.060;2023-01-08T09:18:03;5.70;80.80
10903;DHT22;5504;47.312;11.060;2023-01-08T09:20:29;5.60;80.00
10903;DHT22;5504;47.312;11.060;2023-01-08T09:22:58;5.80;81.70
10903;DHT22;5504;47.312;11.060;2023-01-08T09:25:24;6.30;82.20
10903;DHT22;5504;47.312;11.060;2023-01-08T09:28:04;6.80;80.80
10903;DHT22;5504;47.312;11.060;2023-01-08T09:30:30;7.20;79.10
10903;DHT22;5504;47.312;11.060;2023-01-08T09:33:00;7.30;76.00
10903;DHT22;5504;47.312;11.060;2023-01-08T09:35:27;7.40;74.50
10903;DHT22;5504;47.312;11.060;2023-01-08T09:37:53;7.70;74.50
10903;DHT22;5504;47.312;11.060;2023-01-08T09:40:21;7.90;73.80
10903;DHT22;5504;47.312;11.060;2023-01-08T09:42:54;7.90;73.80
10903;DHT22;5504;47.312;11.060;2023-01-08T09:45:31;8.00;74.30
10903;DHT22;5504;47.312;11.060;2023-01-08T09:48:01;8.20;73.40
10903;DHT22;5504;47.312;11.060;2023-01-08T09:50:28;8.20;73.80
10903;DHT22;5504;47.312;11.060;2023-01-08T09:52:56;8.50;73.20
10903;DHT22;5504;47.312;11.060;2023-01-08T09:55:22;8.40;70.80
10903;DHT22;5504;47.312;11.060;2023-01-08T09:57:48;8.70;70.50
10903;DHT22;5504;47.312;11.060;2023-01-08T10:00:16;8.80;68.00
10903;DHT22;5504;47.312;11.060;2023-01-08T10:02:44;9.30;69.30
10903;DHT22;5504;47.312;11.060;2023-01-08T10:05:15;9.70;67.60
10903;DHT22;5504;47.312;11.060;2023-01-08T10:07:41;10.00;64.30
10903;DHT22;5504;47.312;11.060;2023-01-08T10:10:28;10.20;64.50
10903;DHT22;5504;47.312;11.060;2023-01-08T10:12:54;10.40;64.50
10903;DHT22;5504;47.312;11.060;2023-01-08T10:15:21;10.60;65.10
10903;DHT22;5504;47.312;11.060;2023-01-08T10:18:03;11.40;65.40
10903;DHT22;5504;47.312;11.060;2023-01-08T10:20:29;10.00;62.20
10903;DHT22;5504;47.312;11.060;2023-01-08T10:22:55;9.90;65.90
10903;DHT22;5504;47.312;11.060;2023-01-08T10:25:32;10.10;64.20
10903;DHT22;5504;47.312;11.060;2023-01-08T10:28:00;10.00;62.10
10903;DHT22;5504;47.312;11.060;2023-01-08T10:30:35;9.80;63.30
10903;DHT22;5504;47.312;11.060;2023-01-08T10:33:09;9.90;63.20
10903;DHT22;5504;47.312;11.060;2023-01-08T10:35:40;9.70;65.20
10903;DHT22;5504;47.312;11.060;2023-01-08T10:38:20;9.70;67.60
10903;DHT22;5504;47.312;11.060;2023-01-08T10:40:48;9.60;67.10
10903;DHT22;5504;47.312;11.060;2023-01-08T10:43:20;9.50;66.40
10903;DHT22;5504;47.312;11.060;2023-01-08T10:48:53;9.40;66.00
10903;DHT22;5504;47.312;11.060;2023-01-08T10:53:46;9.20;65.40
10903;DHT22;5504;47.312;11.060;2023-01-08T10:58:47;9.30;70.10
10903;DHT22;5504;47.312;11.060;2023-01-08T11:01:27;9.00;66.60
10903;DHT22;5504;47.312;11.060;2023-01-08T11:03:58;8.90;66.30
10903;DHT22;5504;47.312;11.060;2023-01-08T11:06:30;8.90;66.50
10903;DHT22;5504;47.312;11.060;2023-01-08T11:09:01;8.80;68.70
10903;DHT22;5504;47.312;11.060;2023-01-08T11:11:35;8.60;69.60
10903;DHT22;5504;47.312;11.060;2023-01-08T11:14:12;8.40;69.80
10903;DHT22;5504;47.312;11.060;2023-01-08T11:16:41;8.00;68.20
10903;DHT22;5504;47.312;11.060;2023-01-08T11:19:23;8.20;69.40
10903;DHT22;5504;47.312;11.060;2023-01-08T11:27:51;7.80;70.40
10903;DHT22;5504;47.312;11.060;2023-01-08T11:30:15;7.50;72.80
10903;DHT22;5504;47.312;11.060;2023-01-08T11:33:08;7.90;72.80
10903;DHT22;5504;47.312;11.060;2023-01-08T11:35:39;7.50;71.00
10903;DHT22;5504;47.312;11.060;2023-01-08T11:38:10;7.40;70.60
10903;DHT22;5504;47.312;11.060;2023-01-08T11:43:32;7.90;70.70
10903;DHT22;5504;47.312;11.060;2023-01-08T11:57:41;8.30;67.00
10903;DHT22;5504;47.312;11.060;2023-01-08T12:03:34;8.20;70.00
10903;DHT22;5504;47.312;11.060;2023-01-08T12:06:10;8.10;69.90
10903;DHT22;5504;47.312;11.060;2023-01-08T12:11:23;8.20;70.60
10903;DHT22;5504;47.312;11.060;2023-01-08T12:19:53;7.80;73.90
10903;DHT22;5504;47.312;11.060;2023-01-08T12:22:53;7.80;73.30
10903;DHT22;5504;47.312;11.060;2023-01-08T12:26:02;7.60;73.30
10903;DHT22;5504;47.312;11.060;2023-01-08T12:37:48;7.60;74.90
10903;DHT22;5504;47.312;11.060;2023-01-08T12:40:48;7.70;74.70
10903;DHT22;5504;47.312;11.060;2023-01-08T12:43:53;7.50;74.70
10903;DHT22;5504;47.312;11.060;2023-01-08T12:46:01;7.10;75.50
10903;DHT22;5504;47.312;11.060;2023-01-08T12:48:30;7.20;75.20
10903;DHT22;5504;47.312;11.060;2023-01-08T12:51:23;7.50;76.30
10903;DHT22;5504;47.312;11.060;2023-01-08T13:01:49;6.70;77.30
10903;DHT22;5504;47.312;11.060;2023-01-08T13:04:17;6.90;77.80
10903;DHT22;5504;47.312;11.060;2023-01-08T13:07:02;7.10;77.00
10903;DHT22;5504;47.312;11.060;2023-01-08T13:09:29;7.30;76.90
10903;DHT22;5504;47.312;11.060;2023-01-08T13:11:57;7.40;76.20
10903;DHT22;5504;47.312;11.060;2023-01-08T13:14:23;7.20;77.00
10903;DHT22;5504;47.312;11.060;2023-01-08T13:17:17;6.70;74.90
10903;DHT22;5504;47.312;11.060;2023-01-08T13:19:51;6.70;74.90
10903;DHT22;5504;47.312;11.060;2023-01-08T13:22:30;6.90;75.10
10903;DHT22;5504;47.312;11.060;2023-01-08T13:27:42;7.30;75.00
10903;DHT22;5504;47.312;11.060;2023-01-08T13:32:56;7.20;75.10
10903;DHT22;5504;47.312;11.060;2023-01-08T13:35:31;7.30;75.60
10903;DHT22;5504;47.312;11.060;2023-01-08T13:40:39;7.60;74.70
10903;DHT22;5504;47.312;11.060;2023-01-08T13:43:22;7.70;74.10
10903;DHT22;5504;47.312;11.060;2023-01-08T13:48:28;7.40;72.70
10903;DHT22;5504;47.312;11.060;2023-01-08T13:50:55;6.80;73.50
10903;DHT22;5504;47.312;11.060;2023-01-08T13:53:21;6.90;74.10
10903;DHT22;5504;47.312;11.060;2023-01-08T13:56:06;7.10;74.30
10903;DHT22;5504;47.312;11.060;2023-01-08T13:58:36;7.30;73.70
10903;DHT22;5504;47.312;11.060;2023-01-08T14:01:05;7.50;73.50
10903;DHT22;5504;47.312;11.060;2023-01-08T14:03:34;7.50;73.90
10903;DHT22;5504;47.312;11.060;2023-01-08T14:06:05;7.60;73.60
10903;DHT22;5504;47.312;11.060;2023-01-08T14:08:32;7.70;73.80
10903;DHT22;5504;47.312;11.060;2023-01-08T14:10:57;7.80;72.70
10903;DHT22;5504;47.312;11.060;2023-01-08T14:13:29;7.70;73.80
10903;DHT22;5504;47.312;11.060;2023-01-08T14:16:02;7.50;74.50
10903;DHT22;5504;47.312;11.060;2023-01-08T14:18:28;7.50;74.90
10903;DHT22;5504;47.312;11.060;2023-01-08T14:20:54;7.40;74.90
10903;DHT22;5504;47.312;11.060;2023-01-08T14:23:26;7.60;74.70
10903;DHT22;5504;47.312;11.060;2023-01-08T14:25:53;7.60;74.20
10903;DHT22;5504;47.312;11.060;2023-01-08T14:28:21;7.70;74.10
10903;DHT22;5504;47.312;11.060;2023-01-08T14:30:52;7.80;73.40
10903;DHT22;5504;47.312;11.060;2023-01-08T14:33:43;7.90;73.20
10903;DHT22;5504;47.312;11.060;2023-01-08T14:36:08;7.80;73.90
10903;DHT22;5504;47.312;11.060;2023-01-08T14:38:34;7.90;74.10
10903;DHT22;5504;47.312;11.060;2023-01-08T14:41:06;8.00;74.60
10903;DHT22;5504;47.312;11.060;2023-01-08T14:43:37;7.90;75.00
10903;DHT22;5504;47.312;11.060;2023-01-08T14:46:21;7.90;74.50
10903;DHT22;5504;47.312;11.060;2023-01-08T14:48:50;7.70;74.30
10903;DHT22;5504;47.312;11.060;2023-01-08T14:51:21;7.60;74.20
10903;DHT22;5504;47.312;11.060;2023-01-08T14:53:52;7.70;74.00
10903;DHT22;5504;47.312;11.060;2023-01-08T14:56:21;7.60;74.50
10903;DHT22;5504;47.312;11.060;2023-01-08T14:58:48;7.60;74.40
10903;DHT22;5504;47.312;11.060;2023-01-08T15:01:21;7.50;74.30
10903;DHT22;5504;47.312;11.060;2023-01-08T15:03:49;7.70;75.30
10903;DHT22;5504;47.312;11.060;2023-01-08T15:06:25;7.60;74.60
10903;DHT22;5504;47.312;11.060;2023-01-08T15:08:51;7.40;76.10
10903;DHT22;5504;47.312;11.060;2023-01-08T15:13:44;7.30;77.60
10903;DHT22;5504;47.312;11.060;2023-01-08T15:16:25;7.20;78.30
10903;DHT22;5504;47.312;11.060;2023-01-08T15:19:12;7.30;77.50
10903;DHT22;5504;47.312;11.060;2023-01-08T15:21:48;7.20;77.40
10903;DHT22;5504;47.312;11.060;2023-01-08T15:24:40;7.10;78.20
10903;DHT22;5504;47.312;11.060;2023-01-08T15:27:17;6.90;79.40
10903;DHT22;5504;47.312;11.060;2023-01-08T15:29:52;6.80;80.60
10903;DHT22;5504;47.312;11.060;2023-01-08T15:32:28;6.70;80.50
10903;DHT22;5504;47.312;11.060;2023-01-08T15:34:54;6.70;80.10
10903;DHT22;5504;47.312;11.060;2023-01-08T15:37:20;6.70;80.90
10903;DHT22;5504;47.312;11.060;2023-01-08T15:39:46;6.70;79.70
10903;DHT22;5504;47.312;11.060;2023-01-08T15:42:21;6.70;79.70
10903;DHT22;5504;47.312;11.060;2023-01-08T15:45:13;6.60;79.70
10903;DHT22;5504;47.312;11.060;2023-01-08T15:47:39;6.30;80.40
10903;DHT22;5504;47.312;11.060;2023-01-08T15:50:05;6.30;81.10
10903;DHT22;5504;47.312;11.060;2023-01-08T15:52:31;6.40;80.20
10903;DHT22;5504;47.312;11.060;2023-01-08T15:54:58;6.20;80.60
10903;DHT22;5504;47.312;11.060;2023-01-08T15:57:25;6.30;80.30
10903;DHT22;5504;47.312;11.060;2023-01-08T15:59:51;6.20;81.00
10903;DHT22;5504;47.312;11.060;2023-01-08T16:02:17;6.10;81.10
10903;DHT22;5504;47.312;11.060;2023-01-08T16:04:43;6.00;81.20
10903;DHT22;5504;47.312;11.060;2023-01-08T16:07:09;6.10;80.50
10903;DHT22;5504;47.312;11.060;2023-01-08T16:09:34;5.90;81.50
10903;DHT22;5504;47.312;11.060;2023-01-08T16:12:00;5.70;82.20
10903;DHT22;5504;47.312;11.060;2023-01-08T16:14:26;5.60;82.60
10903;DHT22;5504;47.312;11.060;2023-01-08T16:16:52;5.50;82.90
10903;DHT22;5504;47.312;11.060;2023-01-08T16:19:18;5.50;83.40
10903;DHT22;5504;47.312;11.060;2023-01-08T16:21:43;5.60;82.40
10903;DHT22;5504;47.312;11.060;2023-01-08T16:24:12;4.70;83.60
10903;DHT22;5504;47.312;11.060;2023-01-08T16:26:38;4.60;85.30
10903;DHT22;5504;47.312;11.060;2023-01-08T16:29:04;4.80;84.80
10903;DHT22;5504;47.312;11.060;2023-01-08T16:31:29;4.80;84.80
10903;DHT22;5504;47.312;11.060;2023-01-08T16:34:00;5.00;83.90
10903;DHT22;5504;47.312;11.060;2023-01-08T16:36:26;4.90;83.50
10903;DHT22;5504;47.312;11.060;2023-01-08T16:38:52;5.00;82.90
10903;DHT22;5504;47.312;11.060;2023-01-08T16:41:18;4.70;83.00
10903;DHT22;5504;47.312;11.060;2023-01-08T16:43:43;4.60;84.10
10903;DHT22;5504;47.312;11.060;2023-01-08T16:46:14;4.70;83.70
10903;DHT22;5504;47.312;11.060;2023-01-08T16:48:41;4.60;83.90
10903;DHT22;5504;47.312;11.060;2023-01-08T16:51:08;4.60;84.10
10903;DHT22;5504;47.312;11.060;2023-01-08T16:53:35;4.50;84.20
10903;DHT22;5504;47.312;11.060;2023-01-08T16:56:01;4.50;84.20
10903;DHT22;5504;47.312;11.060;2023-01-08T16:58:28;4.60;84.10
10903;DHT22;5504;47.312;11.060;2023-01-08T17:00:54;4.40;84.30
10903;DHT22;5504;47.312;11.060;2023-01-08T17:03:20;4.40;85.00
10903;DHT22;5504;47.312;11.060;2023-01-08T17:05:46;4.40;85.30
10903;DHT22;5504;47.312;11.060;2023-01-08T17:08:12;4.50;85.00
10903;DHT22;5504;47.312;11.060;2023-01-08T17:10:42;4.60;84.70
10903;DHT22;5504;47.312;11.060;2023-01-08T17:13:09;4.50;84.60
10903;DHT22;5504;47.312;11.060;2023-01-08T17:15:38;4.40;84.70
10903;DHT22;5504;47.312;11.060;2023-01-08T17:18:04;4.40;85.10
10903;DHT22;5504;47.312;11.060;2023-01-08T17:20:30;4.30;85.20
10903;DHT22;5504;47.312;11.060;2023-01-08T17:22:56;4.40;84.90
10903;DHT22;5504;47.312;11.060;2023-01-08T17:25:22;4.50;84.30
10903;DHT22;5504;47.312;11.060;2023-01-08T17:27:48;4.40;84.30
10903;DHT22;5504;47.312;11.060;2023-01-08T17:30:14;4.40;84.60
10903;DHT22;5504;47.312;11.060;2023-01-08T17:32:40;4.40;85.10